Polzeath, United Kingdom
Current Conditions -  °F | °C
As of 1:50 PM on Wednesday 28 Jan 2015 (Local Time) from EGHQ Reporting Station
Few Clouds Few Clouds  
Wind Chill: 32°   Ceiling: Unl
Heat Index: 43°   Visibility: 6mi
Dew Point: 30°   Wind: 29mph
Humidity: 61%   Direction: 300°WNW
Pressure: 29.8"   Gusts: NA
Location:  50.57°N, 4.92°W
Report Text: EGHQ 281350Z 30025KT 9999 FEW041 06/M01 Q1009
Loading
Personal Weather Stations






























Interactive Weather Map New forecast layout! Learn more

10-Day Weather Forecast

Advertisements
Track Severe Weather on mobile